createdAt,value
2023-05-04T00:03:25.316Z,14.93
2023-05-04T00:09:28.048Z,15.01
2023-05-04T00:15:30.775Z,14.99
2023-05-04T00:21:35.219Z,15.06
2023-05-04T00:27:39.567Z,15.12
2023-05-04T00:33:43.155Z,15.09
2023-05-04T00:39:45.318Z,14.97
2023-05-04T00:45:48.450Z,14.96
2023-05-04T00:51:55.310Z,14.76
2023-05-04T00:57:58.030Z,14.61
2023-05-04T01:04:02.033Z,14.58
2023-05-04T01:10:20.652Z,14.40
2023-05-04T01:16:23.226Z,14.28
2023-05-04T01:22:25.659Z,14.16
2023-05-04T01:29:08.349Z,14.15
2023-05-04T01:35:13.717Z,14.06
2023-05-04T01:41:18.962Z,14.08
2023-05-04T01:47:21.172Z,13.95
2023-05-04T01:53:24.720Z,14.01
2023-05-04T01:59:30.692Z,13.99
2023-05-04T02:05:32.949Z,14.16
2023-05-04T02:11:38.006Z,14.28
2023-05-04T02:17:40.446Z,14.25
2023-05-04T02:23:42.661Z,14.25
2023-05-04T02:29:44.902Z,14.21
2023-05-04T02:35:47.499Z,14.01
2023-05-04T02:41:50.553Z,13.98
2023-05-04T02:47:56.673Z,14.00
2023-05-04T02:53:58.851Z,13.89
2023-05-04T03:00:02.847Z,13.97
2023-05-04T03:06:06.568Z,14.22
2023-05-04T03:12:08.822Z,14.27
2023-05-04T03:18:11.205Z,14.35
2023-05-04T03:24:17.214Z,14.48
2023-05-04T03:30:20.567Z,14.60
2023-05-04T03:36:23.146Z,14.45
2023-05-04T03:42:26.636Z,14.47
2023-05-04T03:48:30.851Z,14.22
2023-05-04T03:54:33.074Z,14.36
2023-05-04T04:07:19.904Z,14.42
2023-05-04T04:13:22.348Z,14.29
